createdAt,value
2023-03-02T00:01:33.232Z,2.17
2023-03-02T00:08:24.065Z,2.13
2023-03-02T00:10:59.997Z,2.95
2023-03-02T00:14:01.124Z,2.28
2023-03-02T00:16:32.386Z,2.35
2023-03-02T00:20:08.280Z,2.83
2023-03-02T00:22:47.597Z,2.28
2023-03-02T00:26:36.643Z,1.80
2023-03-02T00:29:29.724Z,1.63
2023-03-02T00:32:03.988Z,1.90
2023-03-02T00:34:32.634Z,2.47
2023-03-02T00:37:02.567Z,2.20
2023-03-02T00:39:30.646Z,1.23
2023-03-02T00:42:01.447Z,1.50
2023-03-02T00:45:02.334Z,1.65
2023-03-02T00:47:30.096Z,1.65
2023-03-02T00:50:02.408Z,1.20
2023-03-02T00:52:39.321Z,2.25
2023-03-02T00:55:31.944Z,2.35
2023-03-02T01:02:55.406Z,1.40
2023-03-02T01:06:47.314Z,2.05
2023-03-02T01:10:27.077Z,1.50
2023-03-02T01:13:30.618Z,1.52
2023-03-02T01:17:31.474Z,1.80
2023-03-02T01:20:07.810Z,3.25
2023-03-02T01:26:23.253Z,1.85
2023-03-02T01:28:55.488Z,2.53
2023-03-02T01:32:13.344Z,1.70
2023-03-02T01:34:54.385Z,2.67
2023-03-02T01:37:23.205Z,1.90
2023-03-02T01:40:44.119Z,1.50
2023-03-02T01:46:37.654Z,1.90
2023-03-02T01:53:13.033Z,1.98
2023-03-02T01:59:59.906Z,2.97
2023-03-02T02:02:35.340Z,2.45
2023-03-02T02:05:04.207Z,2.67
2023-03-02T02:07:36.654Z,3.30
2023-03-02T02:10:31.321Z,2.55
2023-03-02T02:14:10.708Z,2.30
2023-03-02T02:17:33.502Z,2.28
2023-03-02T02:20:12.309Z,2.42
2023-03-02T02:22:48.520Z,2.30
2023-03-02T02:29:45.711Z,2.58
2023-03-02T02:33:07.780Z,3.05
2023-03-02T02:35:38.757Z,3.63
2023-03-02T02:38:09.173Z,2.42
2023-03-02T02:41:34.458Z,3.13
2023-03-02T02:45:01.388Z,2.78
2023-03-02T02:47:29.720Z,2.43
2023-03-02T02:50:04.965Z,2.72
2023-03-02T03:08:10.455Z,2.55
2023-03-02T03:10:45.430Z,2.90
2023-03-02T03:13:33.849Z,3.45
2023-03-02T03:16:35.568Z,3.03
2023-03-02T03:20:17.660Z,3.45
2023-03-02T03:22:46.005Z,3.20
2023-03-02T03:25:16.018Z,3.42
2023-03-02T03:28:28.570Z,5.35
2023-03-02T03:31:00.027Z,4.35
2023-03-02T03:42:33.214Z,6.65
2023-03-02T03:45:02.981Z,5.88
2023-03-02T03:47:37.707Z,7.05
2023-03-02T03:50:38.099Z,5.63
2023-03-02T03:53:22.559Z,6.03
2023-03-02T04:02:35.494Z,7.15
2023-03-02T04:04:30.967Z,5.90
2023-03-02T04:07:01.897Z,6.90
2023-03-02T04:09:32.411Z,6.10
2023-03-02T04:12:00.719Z,6.93
2023-03-02T04:14:35.523Z,7.45
2023-03-02T04:17:07.419Z,6.97
2023-03-02T04:19:42.305Z,9.13
2023-03-02T04:22:10.912Z,10.65
2023-03-02T04:25:16.875Z,11.93
2023-03-02T04:31:33.753Z,16.08
2023-03-02T04:38:08.189Z,16.53
2023-03-02T04:56:27.319Z,27.10
2023-03-02T05:25:36.414Z,32.75
2023-03-02T05:32:27.010Z,31.17
2023-03-02T05:43:26.188Z,32.28
2023-03-02T05:57:31.205Z,31.00
2023-03-02T06:00:03.740Z,32.42
2023-03-02T06:03:04.183Z,31.42
2023-03-02T06:05:36.515Z,30.20
2023-03-02T06:08:10.352Z,31.17
2023-03-02T06:11:31.343Z,33.92
2023-03-02T06:14:02.173Z,33.75
2023-03-02T06:16:34.134Z,31.90
2023-03-02T06:19:01.967Z,32.42
2023-03-02T06:21:29.529Z,30.90
2023-03-02T06:23:57.019Z,32.63
2023-03-02T06:26:24.598Z,30.73
2023-03-02T06:28:53.935Z,33.83
2023-03-02T06:31:23.181Z,34.13
2023-03-02T06:33:53.304Z,35.28
2023-03-02T06:36:20.741Z,32.58
2023-03-02T06:38:48.267Z,32.72
2023-03-02T06:41:18.929Z,32.65
2023-03-02T06:43:46.744Z,32.90
2023-03-02T06:46:14.406Z,35.13
2023-03-02T06:48:41.993Z,32.90
2023-03-02T06:51:09.610Z,33.55
2023-03-02T06:53:37.023Z,33.80
2023-03-02T06:56:04.846Z,32.72
2023-03-02T06:58:32.258Z,30.60
2023-03-02T07:00:59.686Z,31.55
2023-03-02T07:03:27.318Z,29.90
2023-03-02T07:05:55.099Z,33.00
2023-03-02T07:08:23.060Z,27.67
2023-03-02T07:10:50.482Z,29.88
2023-03-02T07:13:17.953Z,27.35
2023-03-02T07:15:45.426Z,25.83
2023-03-02T07:18:12.841Z,27.10
2023-03-02T07:20:40.264Z,25.50
2023-03-02T07:23:07.657Z,25.98
2023-03-02T07:25:36.987Z,28.15
2023-03-02T07:28:04.666Z,26.08
2023-03-02T07:30:32.205Z,25.17
2023-03-02T07:32:59.694Z,27.92
2023-03-02T07:35:27.198Z,26.83
2023-03-02T07:37:54.750Z,25.58
2023-03-02T07:40:22.264Z,22.70
2023-03-02T07:42:49.706Z,23.25
2023-03-02T07:45:20.251Z,23.63
2023-03-02T07:47:47.730Z,23.25
2023-03-02T07:50:15.414Z,24.33
2023-03-02T07:52:43.326Z,22.80
2023-03-02T07:55:14.992Z,25.48
2023-03-02T07:57:42.446Z,21.17
2023-03-02T08:00:10.719Z,21.98
2023-03-02T08:02:42.034Z,23.25
2023-03-02T08:05:10.694Z,24.65
2023-03-02T08:07:38.512Z,21.95
2023-03-02T08:10:06.477Z,21.33
2023-03-02T08:12:34.066Z,17.15
2023-03-02T08:15:03.592Z,18.20
2023-03-02T08:17:32.499Z,14.63
2023-03-02T08:19:59.924Z,13.63
2023-03-02T08:22:27.396Z,15.35
2023-03-02T08:24:54.806Z,12.23
2023-03-02T08:27:22.297Z,13.63
2023-03-02T08:29:49.732Z,13.25
2023-03-02T08:32:17.252Z,13.00
2023-03-02T08:34:44.762Z,12.05
2023-03-02T08:37:12.205Z,12.85
2023-03-02T08:39:39.544Z,17.30
2023-03-02T08:42:06.912Z,12.65
2023-03-02T08:44:34.318Z,13.13
2023-03-02T08:47:01.764Z,11.45
2023-03-02T08:49:29.252Z,10.85
2023-03-02T08:51:59.321Z,9.65
2023-03-02T08:54:27.262Z,5.80
2023-03-02T08:56:54.717Z,7.85
2023-03-02T08:59:22.380Z,6.22
2023-03-02T09:01:49.891Z,6.55
2023-03-02T09:04:17.475Z,9.02
2023-03-02T09:06:45.758Z,9.02
2023-03-02T09:09:14.892Z,8.20
2023-03-02T09:11:42.475Z,7.22
2023-03-02T09:14:09.864Z,5.22
2023-03-02T09:16:37.428Z,7.13
2023-03-02T09:19:04.909Z,5.63
2023-03-02T09:21:32.811Z,5.22
2023-03-02T09:24:00.586Z,7.32
2023-03-02T09:26:28.060Z,4.78
2023-03-02T09:28:56.360Z,4.63
2023-03-02T09:31:24.132Z,4.82
2023-03-02T09:33:51.752Z,5.75
2023-03-02T09:36:22.363Z,5.28
2023-03-02T09:38:50.414Z,4.65
2023-03-02T09:41:20.544Z,7.57
2023-03-02T09:44:10.704Z,5.05
2023-03-02T09:46:40.709Z,5.10
2023-03-02T09:49:31.129Z,5.43
2023-03-02T09:52:01.290Z,4.50
2023-03-02T09:54:30.062Z,4.78
2023-03-02T09:56:59.376Z,5.43
2023-03-02T09:59:37.802Z,4.53
2023-03-02T10:02:20.990Z,4.40
2023-03-02T10:04:53.347Z,6.50
2023-03-02T10:07:30.695Z,8.52
2023-03-02T10:10:12.990Z,4.82
2023-03-02T10:13:03.238Z,5.15
2023-03-02T10:15:35.767Z,4.00
2023-03-02T10:18:12.113Z,5.15
2023-03-02T10:20:49.668Z,4.15
2023-03-02T10:23:54.545Z,6.15
2023-03-02T10:26:31.037Z,6.43
2023-03-02T10:29:13.394Z,5.50
2023-03-02T10:31:55.941Z,3.83
2023-03-02T10:34:28.055Z,3.72
2023-03-02T10:36:55.384Z,2.97
2023-03-02T10:39:22.777Z,2.75
2023-03-02T10:41:56.062Z,2.40
2023-03-02T10:44:38.833Z,3.15
2023-03-02T10:47:08.601Z,3.22
2023-03-02T10:49:41.603Z,2.95
2023-03-02T10:52:20.642Z,2.03
2023-03-02T10:54:48.308Z,1.92
2023-03-02T10:57:29.998Z,2.10
2023-03-02T11:00:25.006Z,2.38
2023-03-02T11:03:01.736Z,4.32
2023-03-02T11:05:37.710Z,3.22
2023-03-02T11:08:19.054Z,4.03
2023-03-02T11:11:00.740Z,2.75
2023-03-02T11:13:31.764Z,2.13
2023-03-02T11:16:00.985Z,4.03
2023-03-02T11:18:34.670Z,4.25
2023-03-02T11:21:06.457Z,2.75
2023-03-02T11:23:55.806Z,3.33
2023-03-02T11:26:28.315Z,2.33
2023-03-02T11:29:40.188Z,2.50
2023-03-02T11:32:20.330Z,5.60
2023-03-02T11:34:58.949Z,3.13
2023-03-02T11:37:39.758Z,2.42
2023-03-02T11:40:16.758Z,2.58
2023-03-02T11:42:45.925Z,2.20
2023-03-02T11:45:13.878Z,3.15
2023-03-02T11:47:54.264Z,2.88
2023-03-02T11:50:25.736Z,4.00
2023-03-02T11:52:58.719Z,3.78
2023-03-02T11:55:34.199Z,4.70
2023-03-02T11:58:04.152Z,2.13
2023-03-02T12:00:40.465Z,2.15
2023-03-02T12:03:16.546Z,2.38
2023-03-02T12:05:47.732Z,1.88
2023-03-02T12:08:21.147Z,3.30
2023-03-02T12:11:29.278Z,1.90
2023-03-02T12:14:02.302Z,2.70
2023-03-02T12:16:36.419Z,4.53
2023-03-02T12:19:17.443Z,3.90
2023-03-02T12:22:06.948Z,3.03
2023-03-02T12:24:39.892Z,2.92
2023-03-02T12:27:12.948Z,4.22
2023-03-02T12:29:49.840Z,2.42
2023-03-02T12:32:26.976Z,5.70
2023-03-02T12:34:59.878Z,3.70
2023-03-02T12:37:41.366Z,4.53
2023-03-02T12:40:29.548Z,3.63
2023-03-02T12:43:14.051Z,4.15
2023-03-02T12:45:46.775Z,3.45
2023-03-02T12:48:37.907Z,3.45
2023-03-02T12:51:12.690Z,4.13
2023-03-02T12:53:41.209Z,4.60
2023-03-02T12:56:09.689Z,3.35
2023-03-02T12:58:37.333Z,3.00
2023-03-02T13:01:05.941Z,3.30
2023-03-02T13:03:33.512Z,4.70
2023-03-02T13:06:04.463Z,5.35
2023-03-02T13:08:32.822Z,2.97
2023-03-02T13:11:04.087Z,4.05
2023-03-02T13:13:42.927Z,2.22
2023-03-02T13:16:27.048Z,2.22
2023-03-02T13:19:03.293Z,4.28
2023-03-02T13:21:38.784Z,2.30
2023-03-02T13:26:59.910Z,5.00
2023-03-02T13:29:28.725Z,3.33
2023-03-02T13:31:56.163Z,3.25
2023-03-02T13:34:26.781Z,2.42
2023-03-02T13:36:55.090Z,3.42
2023-03-02T13:39:27.654Z,2.72
2023-03-02T13:41:58.686Z,3.65
2023-03-02T13:44:32.367Z,4.50
2023-03-02T13:47:01.068Z,5.15
2023-03-02T13:49:34.221Z,3.80
2023-03-02T13:52:08.403Z,2.30
2023-03-02T13:54:37.552Z,2.80
2023-03-02T13:57:06.389Z,4.97
2023-03-02T13:59:36.728Z,6.80
2023-03-02T14:02:24.661Z,5.30
2023-03-02T14:04:54.956Z,4.45
2023-03-02T14:07:22.826Z,3.65
2023-03-02T14:09:50.302Z,3.13
2023-03-02T14:12:30.492Z,3.67
2023-03-02T14:15:01.998Z,3.60
2023-03-02T14:17:29.745Z,3.10
2023-03-02T14:19:57.224Z,2.50
2023-03-02T14:22:27.387Z,3.00
2023-03-02T14:24:54.759Z,2.88
2023-03-02T14:27:25.938Z,3.33
2023-03-02T14:29:53.261Z,4.68
2023-03-02T14:32:20.712Z,2.28
2023-03-02T14:34:48.171Z,3.03
2023-03-02T14:37:18.710Z,2.25
2023-03-02T14:39:51.384Z,7.32
2023-03-02T14:42:21.466Z,3.40
2023-03-02T14:44:51.261Z,2.13
2023-03-02T14:47:19.745Z,2.72
2023-03-02T14:49:48.989Z,2.85
2023-03-02T14:52:31.812Z,2.10
2023-03-02T14:55:20.440Z,7.20
2023-03-02T14:57:53.345Z,1.50
2023-03-02T15:00:21.372Z,1.98
2023-03-02T15:02:49.026Z,2.08
2023-03-02T15:05:16.795Z,3.30
2023-03-02T15:07:44.920Z,1.90
2023-03-02T15:10:18.586Z,4.32
2023-03-02T15:12:46.170Z,2.97
2023-03-02T15:15:13.955Z,2.47
2023-03-02T15:17:42.000Z,3.53
2023-03-02T15:20:15.129Z,3.97
2023-03-02T15:22:43.089Z,2.97
2023-03-02T15:25:11.241Z,3.03
2023-03-02T15:27:38.754Z,3.88
2023-03-02T15:30:06.774Z,2.95
2023-03-02T15:32:36.724Z,3.72
2023-03-02T15:35:05.115Z,2.97
2023-03-02T15:37:32.455Z,3.08
2023-03-02T15:39:59.849Z,3.33
2023-03-02T15:42:27.225Z,3.63
2023-03-02T15:44:55.035Z,3.10
2023-03-02T15:47:23.265Z,6.72
2023-03-02T15:49:50.880Z,3.53
2023-03-02T15:52:20.159Z,2.97
2023-03-02T15:54:50.518Z,3.85
2023-03-02T15:57:18.033Z,3.30
2023-03-02T15:59:46.311Z,3.65
2023-03-02T16:02:15.212Z,5.53
2023-03-02T16:04:42.653Z,5.88
2023-03-02T16:07:10.121Z,5.65
2023-03-02T16:09:37.549Z,6.78
2023-03-02T16:12:05.150Z,4.38
2023-03-02T16:14:34.328Z,5.32
2023-03-02T16:17:01.929Z,5.53
2023-03-02T16:19:29.298Z,7.63
2023-03-02T16:21:56.721Z,4.88
2023-03-02T16:24:24.265Z,6.32
2023-03-02T16:26:53.579Z,6.68
2023-03-02T16:29:21.192Z,5.45
2023-03-02T16:31:48.918Z,5.22
2023-03-02T16:34:17.609Z,5.10
2023-03-02T16:36:45.079Z,6.35
2023-03-02T16:39:13.395Z,6.28
2023-03-02T16:41:42.382Z,7.03
2023-03-02T16:44:11.370Z,7.03
2023-03-02T16:46:40.080Z,6.30
2023-03-02T16:49:07.449Z,7.88
2023-03-02T16:51:34.827Z,6.43
2023-03-02T16:54:02.858Z,8.60
2023-03-02T16:56:48.804Z,7.78
2023-03-02T16:59:16.254Z,7.43
2023-03-02T17:01:43.673Z,7.72
2023-03-02T17:04:11.110Z,9.05
2023-03-02T17:06:40.124Z,7.50
2023-03-02T17:09:08.919Z,6.68
2023-03-02T17:11:36.175Z,6.88
2023-03-02T17:14:03.591Z,7.45
2023-03-02T17:16:30.994Z,6.30
2023-03-02T17:18:58.339Z,6.25
2023-03-02T17:21:25.673Z,6.55
2023-03-02T17:23:52.994Z,7.95
2023-03-02T17:26:20.322Z,7.78
2023-03-02T17:28:47.593Z,7.50
2023-03-02T17:31:15.003Z,8.45
2023-03-02T17:33:42.364Z,7.38
2023-03-02T17:36:12.109Z,7.95
2023-03-02T17:38:40.160Z,6.95
2023-03-02T17:41:09.596Z,8.32
2023-03-02T17:43:39.896Z,7.38
2023-03-02T17:46:13.243Z,7.05
2023-03-02T17:48:41.891Z,8.02
2023-03-02T17:51:11.707Z,7.25
2023-03-02T17:53:39.196Z,8.45
2023-03-02T17:56:06.886Z,6.45
2023-03-02T17:58:44.238Z,7.38
2023-03-02T18:01:15.626Z,7.07
2023-03-02T18:03:45.122Z,8.93
2023-03-02T18:06:13.322Z,9.02
2023-03-02T18:08:41.055Z,9.90
2023-03-02T18:11:08.460Z,10.85
2023-03-02T18:13:35.969Z,8.05
2023-03-02T18:16:03.921Z,9.43
2023-03-02T18:18:31.863Z,7.75
2023-03-02T18:20:59.611Z,9.43
2023-03-02T18:23:27.258Z,12.02
2023-03-02T18:25:54.604Z,11.80
2023-03-02T18:28:22.119Z,13.35
2023-03-02T18:30:49.464Z,11.77
2023-03-02T18:33:16.971Z,15.20
2023-03-02T18:35:44.372Z,27.67
2023-03-02T18:38:11.920Z,38.55
2023-03-02T18:40:39.573Z,34.92
2023-03-02T18:43:07.055Z,18.77
2023-03-02T18:45:34.651Z,16.83
2023-03-02T18:48:02.274Z,17.30
2023-03-02T18:50:30.386Z,18.02
2023-03-02T18:52:58.022Z,15.80
2023-03-02T18:55:25.610Z,17.38
2023-03-02T18:57:56.292Z,15.20
2023-03-02T19:00:28.307Z,19.35
2023-03-02T19:02:57.222Z,16.85
2023-03-02T19:05:26.998Z,16.02
2023-03-02T19:07:55.000Z,21.35
2023-03-02T19:10:22.615Z,17.77
2023-03-02T19:12:50.334Z,17.90
2023-03-02T19:15:17.999Z,17.80
2023-03-02T19:17:46.131Z,17.00
2023-03-02T19:20:17.870Z,17.42
2023-03-02T19:22:45.946Z,18.48
2023-03-02T19:25:13.567Z,18.65
2023-03-02T19:27:41.077Z,16.05
2023-03-02T19:30:11.653Z,17.13
2023-03-02T19:32:39.272Z,17.25
2023-03-02T19:35:07.282Z,18.20
2023-03-02T19:37:34.804Z,18.15
2023-03-02T19:40:02.726Z,20.15
2023-03-02T19:42:33.838Z,22.40
2023-03-02T19:45:03.291Z,25.55
2023-03-02T19:47:44.094Z,28.33
2023-03-02T19:50:29.114Z,27.50
2023-03-02T19:52:59.815Z,31.50
2023-03-02T19:55:28.830Z,30.73
2023-03-02T19:57:59.838Z,22.27
2023-03-02T20:00:32.545Z,25.15
2023-03-02T20:03:03.006Z,24.53
2023-03-02T20:05:30.715Z,20.70
2023-03-02T20:08:00.587Z,25.63
2023-03-02T20:10:50.050Z,21.20
2023-03-02T20:13:17.888Z,19.10
2023-03-02T20:15:47.151Z,23.20
2023-03-02T20:18:18.938Z,21.80
2023-03-02T20:20:47.236Z,18.33
2023-03-02T20:23:15.591Z,21.05
2023-03-02T20:25:43.553Z,19.98
2023-03-02T20:28:14.217Z,21.83
2023-03-02T20:30:47.215Z,18.52
2023-03-02T20:33:15.353Z,17.88
2023-03-02T20:35:47.874Z,18.73
2023-03-02T20:38:21.850Z,24.25
2023-03-02T20:40:51.200Z,24.48
2023-03-02T20:43:22.262Z,26.30
2023-03-02T20:45:50.999Z,21.67
2023-03-02T20:48:23.809Z,24.15
2023-03-02T20:50:52.714Z,20.73
2023-03-02T20:53:21.042Z,23.10
2023-03-02T20:55:49.167Z,25.20
2023-03-02T20:58:17.244Z,26.67
2023-03-02T21:00:44.854Z,20.23
2023-03-02T21:03:12.783Z,22.67
2023-03-02T21:05:41.065Z,22.95
2023-03-02T21:08:11.263Z,23.95
2023-03-02T21:10:39.271Z,24.38
2023-03-02T21:13:07.792Z,23.73
2023-03-02T21:15:36.362Z,24.92
2023-03-02T21:18:04.452Z,25.90
2023-03-02T21:20:34.053Z,30.80
2023-03-02T21:23:01.733Z,31.15
2023-03-02T21:25:43.147Z,33.45
2023-03-02T21:28:17.525Z,29.33
2023-03-02T21:30:45.479Z,29.83
2023-03-02T21:33:13.100Z,27.50
2023-03-02T21:35:40.652Z,30.95
2023-03-02T21:38:09.464Z,28.58
2023-03-02T21:40:43.135Z,29.23
2023-03-02T21:43:10.688Z,27.40
2023-03-02T21:45:40.937Z,22.75
2023-03-02T21:48:08.609Z,33.30
2023-03-02T21:50:38.245Z,25.25
2023-03-02T21:53:06.811Z,23.20
2023-03-02T21:55:35.031Z,28.23
2023-03-02T21:58:04.606Z,27.27
2023-03-02T22:01:10.570Z,25.50
2023-03-02T22:03:38.014Z,24.77
2023-03-02T22:06:15.872Z,21.77
2023-03-02T22:08:43.315Z,24.95
2023-03-02T22:11:20.461Z,24.33
2023-03-02T22:13:50.297Z,22.38
2023-03-02T22:16:26.024Z,20.55
2023-03-02T22:19:02.330Z,20.83
2023-03-02T22:21:36.267Z,18.85
2023-03-02T22:24:20.986Z,17.50
2023-03-02T22:27:18.831Z,18.63
2023-03-02T22:29:47.900Z,18.30
2023-03-02T22:32:30.288Z,19.45
2023-03-02T22:35:23.632Z,15.85
2023-03-02T22:37:55.872Z,15.00
2023-03-02T22:40:29.321Z,15.82
2023-03-02T22:43:08.961Z,16.98
2023-03-02T22:45:38.919Z,13.40
2023-03-02T22:48:14.130Z,14.38
2023-03-02T22:50:44.535Z,14.52
2023-03-02T22:53:42.788Z,17.05
2023-03-02T22:56:31.796Z,14.60
2023-03-02T22:59:06.214Z,16.02
2023-03-02T23:01:44.802Z,13.65
2023-03-02T23:04:23.398Z,17.17
2023-03-02T23:07:00.110Z,17.58
2023-03-02T23:09:30.431Z,14.60
2023-03-02T23:12:18.348Z,16.48
2023-03-02T23:14:57.297Z,16.67
2023-03-02T23:17:35.395Z,20.30
2023-03-02T23:22:56.341Z,16.15
2023-03-02T23:25:23.806Z,19.73
2023-03-02T23:27:51.447Z,18.40
2023-03-02T23:30:20.722Z,19.38
2023-03-02T23:32:48.523Z,19.02
2023-03-02T23:35:16.092Z,19.35
2023-03-02T23:37:43.641Z,18.02
2023-03-02T23:40:13.317Z,15.32
2023-03-02T23:42:40.747Z,18.52
2023-03-02T23:45:08.934Z,17.30
2023-03-02T23:47:36.330Z,21.60
2023-03-02T23:50:04.251Z,27.88
2023-03-02T23:52:31.741Z,43.88
2023-03-02T23:54:59.306Z,22.08
2023-03-02T23:57:27.131Z,23.25
2023-03-02T23:59:54.590Z,21.58
